KMDT

Harrisburg International Airport

Harrisburg, Pennsylvania, USA
METAR KMDT 151925Z 13003KT 1 1/2SM R13/4000V5000FT -SN BR BKN014 OVC024 M03/M06 A2993 RMK AO2 P0001 T10331056
Observed Flight Rules
Dec-15 @ 19:25 UTC (28 minutes ago) Instrument Flight Rules
Wind Visibility Clouds Conditions
130° at 3 knots 1 1/2 miles
  • Broken at 1,400' AGL
  • Overcast at 2,400' AGL
  • Light Snow
  • Mist
Temperatures Readings Precipitation
Current -3°C / 27°F
Dewpoint -6°C / 21°F
Humidity 80%
Altimeter 29.93" Hg
Pressure 1014 hPa
Elevation 95
Current Rain 0.01
METAR KMDT 151925Z 13003KT 1 1/2SM R13/4000V5000FT -SN BR BKN014 OVC024 M03/M06 A2993 RMK AO2 P0001 T10331056
Observed Flight Rules
Dec-15 @ 19:25 UTC
(28 minutes ago)
IFR
Wind Visibility
130° at 3 knots 1 1/2 miles
Clouds
  • Broken at 1,400' AGL
  • Overcast at 2,400' AGL
Conditions
  • Light Snow
  • Mist
Temperature Dewpoint
-3°C / 27°F -6°C / 21°F
Humidity Altimeter Pressure
80% 29.93" Hg 1014 hPa
Current Rain
0.01